Joaquin, Texas
Current Conditions -  °F | °C
As of 1:28 AM on Sunday 23 Nov 2014 (Local Time) from KSHV Reporting Station
Light Rain Light Rain  
Wind Chill: 17°   Ceiling: 500
Heat Index: 17°   Visibility: 6mi
Dew Point: 16°   Wind: 5mph
Humidity: 96%   Direction: 120°ESE
Pressure: 29.71"   Gusts: NA
Location:  31.97°N, 94.05°W
Report Text: KSHV 230728Z 12004KT 6SM -RA BR BKN005 OVC027 17/16 A2971 RMK AO2 P0006 T01670161
Loading
Personal Weather Stations






























Interactive Weather Map New forecast layout! Learn more

10-Day Weather Forecast

Advertisements
Track Severe Weather on mobile